createdAt,value
2018-12-03T00:04:59.840Z,12.13
2018-12-03T00:10:03.278Z,12.55
2018-12-03T00:15:07.725Z,12.33
2018-12-03T00:20:12.010Z,12.97
2018-12-03T00:25:15.640Z,12.13
2018-12-03T00:30:19.021Z,12.27
2018-12-03T00:35:22.434Z,13.90
2018-12-03T00:40:26.545Z,15.60
2018-12-03T00:45:30.018Z,11.80
2018-12-03T00:50:33.561Z,13.73
2018-12-03T00:55:37.581Z,13.43
2018-12-03T01:00:41.608Z,15.67
2018-12-03T01:05:45.094Z,13.90
2018-12-03T01:10:48.503Z,14.60
2018-12-03T01:15:51.901Z,14.63
2018-12-03T01:20:56.004Z,16.00
2018-12-03T01:25:59.369Z,14.57
2018-12-03T01:31:02.860Z,13.67
2018-12-03T01:36:06.700Z,13.60
2018-12-03T01:41:10.116Z,14.47
2018-12-03T01:46:13.755Z,17.17
2018-12-03T01:51:17.107Z,15.13
2018-12-03T01:56:21.297Z,13.35
2018-12-03T02:01:24.797Z,13.73
2018-12-03T02:06:28.223Z,15.40
2018-12-03T02:11:34.966Z,13.00
2018-12-03T02:16:38.556Z,13.23
2018-12-03T02:21:42.071Z,13.53
2018-12-03T02:26:45.573Z,13.17
2018-12-03T02:31:49.126Z,13.27
2018-12-03T02:36:52.529Z,14.40
2018-12-03T02:41:56.535Z,12.20
2018-12-03T02:46:59.933Z,13.50
2018-12-03T02:52:03.483Z,13.40
2018-12-03T02:57:06.932Z,14.23
2018-12-03T03:02:10.363Z,14.43
2018-12-03T03:07:13.758Z,14.07
2018-12-03T03:12:17.230Z,13.43
2018-12-03T03:17:20.648Z,14.87
2018-12-03T03:22:24.034Z,14.37
2018-12-03T03:27:27.579Z,14.90
2018-12-03T03:32:31.579Z,13.17
2018-12-03T03:37:35.105Z,13.37
2018-12-03T03:42:38.496Z,12.67
2018-12-03T03:47:41.861Z,11.33
2018-12-03T03:52:45.288Z,13.50
2018-12-03T03:57:48.721Z,11.50
2018-12-03T04:02:52.168Z,11.33
2018-12-03T04:07:55.536Z,10.37
2018-12-03T04:12:58.888Z,9.67
2018-12-03T04:18:02.398Z,10.13
2018-12-03T04:23:05.796Z,9.70
2018-12-03T04:28:09.180Z,9.37
2018-12-03T04:33:14.171Z,8.83
2018-12-03T04:38:17.561Z,8.50
2018-12-03T04:43:21.050Z,8.77
2018-12-03T04:48:24.541Z,8.97
2018-12-03T04:53:28.000Z,8.63
2018-12-03T04:58:31.374Z,9.40
2018-12-03T05:03:34.793Z,8.63
2018-12-03T05:08:38.229Z,9.00
2018-12-03T05:13:41.677Z,8.97
2018-12-03T05:18:45.077Z,9.10
2018-12-03T05:23:49.070Z,9.60
2018-12-03T05:28:52.549Z,12.73
2018-12-03T05:33:55.941Z,10.17
2018-12-03T05:38:59.300Z,11.40
2018-12-03T05:44:02.730Z,11.53
2018-12-03T05:49:06.212Z,11.67
2018-12-03T05:54:09.763Z,12.20
2018-12-03T05:59:13.243Z,12.67
2018-12-03T06:04:16.764Z,12.77
2018-12-03T06:09:20.152Z,12.10
2018-12-03T06:14:23.487Z,13.77
2018-12-03T06:19:26.941Z,12.50
2018-12-03T06:24:30.346Z,16.63
2018-12-03T06:29:33.804Z,13.70
2018-12-03T06:34:37.257Z,13.43
2018-12-03T06:39:40.672Z,14.60
2018-12-03T06:44:44.758Z,13.60
2018-12-03T06:49:48.225Z,14.13
2018-12-03T06:54:51.757Z,13.83
2018-12-03T06:59:55.157Z,14.63
2018-12-03T07:04:58.641Z,12.50
2018-12-03T07:10:02.005Z,14.73
2018-12-03T07:15:07.143Z,13.93
2018-12-03T07:20:11.767Z,13.00
2018-12-03T07:25:15.185Z,9.07
2018-12-03T07:30:20.963Z,10.00
2018-12-03T07:35:25.085Z,12.60
2018-12-03T07:40:28.596Z,10.33
2018-12-03T07:45:32.117Z,9.63
2018-12-03T07:50:35.476Z,9.30
2018-12-03T07:55:38.993Z,11.20
2018-12-03T08:00:45.045Z,10.43
2018-12-03T08:05:48.513Z,8.20
2018-12-03T08:10:54.791Z,8.80
2018-12-03T08:15:58.527Z,8.43
2018-12-03T08:21:04.004Z,7.77
2018-12-03T08:26:09.009Z,9.33
2018-12-03T08:31:12.481Z,7.13
2018-12-03T08:36:15.951Z,7.57
2018-12-03T08:41:19.846Z,7.07
2018-12-03T08:46:23.308Z,9.00
2018-12-03T08:51:26.777Z,8.50
2018-12-03T08:56:30.961Z,9.30
2018-12-03T09:01:34.381Z,7.67
2018-12-03T09:06:37.870Z,6.37
2018-12-03T09:11:47.752Z,7.77
2018-12-03T09:16:51.762Z,6.90
2018-12-03T09:21:55.278Z,7.90
2018-12-03T09:26:58.634Z,6.43
2018-12-03T09:32:02.013Z,6.43
2018-12-03T09:37:05.827Z,7.27
2018-12-03T09:42:09.332Z,6.80
2018-12-03T09:47:12.827Z,6.50
2018-12-03T09:52:16.212Z,5.73
2018-12-03T09:57:20.317Z,7.37
2018-12-03T10:02:27.395Z,5.67
2018-12-03T10:07:30.814Z,6.00
2018-12-03T10:12:34.251Z,7.00
2018-12-03T10:17:37.723Z,6.10
2018-12-03T10:22:41.229Z,8.13
2018-12-03T10:27:44.668Z,9.57
2018-12-03T10:32:50.847Z,5.80
2018-12-03T10:37:54.264Z,8.17
2018-12-03T10:42:57.759Z,7.30
2018-12-03T10:48:01.084Z,7.67
2018-12-03T10:53:04.554Z,5.60
2018-12-03T10:58:08.022Z,6.97
2018-12-03T11:03:17.742Z,6.17
2018-12-03T11:08:22.406Z,5.57
2018-12-03T11:13:25.841Z,7.73
2018-12-03T11:18:31.746Z,6.97
2018-12-03T11:23:35.256Z,8.17
2018-12-03T11:28:40.728Z,6.30
2018-12-03T11:33:45.022Z,5.83
2018-12-03T11:39:03.603Z,4.97
2018-12-03T11:44:07.115Z,3.50
2018-12-03T11:49:11.360Z,0.70
2018-12-03T11:54:14.752Z,0.60
2018-12-03T11:59:18.410Z,1.23
2018-12-03T12:04:22.667Z,1.20
2018-12-03T12:09:26.041Z,1.23
2018-12-03T12:14:29.953Z,0.70
2018-12-03T12:19:33.477Z,1.10
2018-12-03T12:24:37.819Z,0.90
2018-12-03T12:29:41.323Z,0.67
2018-12-03T12:34:44.753Z,1.33
2018-12-03T12:39:48.312Z,1.87
2018-12-03T12:44:51.870Z,1.07
2018-12-03T12:49:55.386Z,0.63
2018-12-03T12:54:58.853Z,0.70
2018-12-03T13:00:02.297Z,1.00
2018-12-03T13:05:05.773Z,2.27
2018-12-03T13:10:12.810Z,1.57
2018-12-03T13:15:16.165Z,0.93
2018-12-03T13:20:19.705Z,2.20
2018-12-03T13:25:23.828Z,1.77
2018-12-03T13:30:27.273Z,2.07
2018-12-03T13:35:56.405Z,1.27
2018-12-03T13:40:59.763Z,1.47
2018-12-03T13:46:02.548Z,1.70
2018-12-03T13:51:05.265Z,1.67
2018-12-03T13:56:07.939Z,2.40
2018-12-03T14:01:10.500Z,1.97
2018-12-03T14:06:13.194Z,3.67
2018-12-03T14:11:15.782Z,2.80
2018-12-03T14:16:19.012Z,2.03
2018-12-03T14:21:21.645Z,2.67
2018-12-03T14:26:24.275Z,3.90
2018-12-03T14:31:27.041Z,2.00
2018-12-03T14:36:30.201Z,1.00
2018-12-03T14:41:32.852Z,1.10
2018-12-03T14:46:35.463Z,1.40
2018-12-03T14:51:38.077Z,1.00
2018-12-03T14:56:40.666Z,1.47
2018-12-03T15:01:43.227Z,1.57
2018-12-03T15:06:45.864Z,1.20
2018-12-03T15:11:49.024Z,1.30
2018-12-03T15:16:51.605Z,3.03
2018-12-03T15:21:54.205Z,1.13
2018-12-03T15:26:57.402Z,1.73
2018-12-03T15:32:00.113Z,1.23
2018-12-03T15:37:02.656Z,1.37
2018-12-03T15:42:05.301Z,2.30
2018-12-03T15:47:07.910Z,4.45
2018-12-03T15:52:12.778Z,2.20
2018-12-03T15:57:15.322Z,2.97
2018-12-03T16:02:18.378Z,3.70
2018-12-03T16:07:21.025Z,2.37
2018-12-03T16:12:23.570Z,4.67
2018-12-03T16:17:26.257Z,2.17
2018-12-03T16:22:28.909Z,4.10
2018-12-03T16:27:31.453Z,3.77
2018-12-03T16:32:34.006Z,2.80
2018-12-03T16:37:36.581Z,2.83
2018-12-03T16:42:39.881Z,3.00
2018-12-03T16:47:42.434Z,3.23
2018-12-03T16:52:45.066Z,2.63
2018-12-03T16:57:47.922Z,3.23
2018-12-03T17:02:50.540Z,3.90
2018-12-03T17:07:53.161Z,4.33
2018-12-03T17:12:55.744Z,4.00
2018-12-03T17:17:58.340Z,4.30
2018-12-03T17:23:01.161Z,6.33
2018-12-03T17:28:03.762Z,5.20
2018-12-03T17:33:06.390Z,7.67
2018-12-03T17:38:08.952Z,6.57
2018-12-03T17:43:11.834Z,8.57
2018-12-03T17:48:15.047Z,7.40
2018-12-03T17:53:17.674Z,6.47
2018-12-03T17:58:20.693Z,8.33
2018-12-03T18:03:24.443Z,7.40
2018-12-03T18:08:27.070Z,7.83
2018-12-03T18:13:29.650Z,35.10
2018-12-03T18:18:32.197Z,10.53
2018-12-03T18:23:35.317Z,8.87
2018-12-03T18:28:38.605Z,7.27
2018-12-03T18:33:41.988Z,9.60
2018-12-03T18:38:45.147Z,8.53
2018-12-03T18:43:47.733Z,9.30
2018-12-03T18:48:50.534Z,11.80
2018-12-03T18:53:53.138Z,10.53
2018-12-03T18:58:55.671Z,10.13
2018-12-03T19:03:58.309Z,8.27
2018-12-03T19:09:00.901Z,11.20
2018-12-03T19:14:03.503Z,9.30
2018-12-03T19:19:06.195Z,9.90
2018-12-03T19:24:08.740Z,7.97
2018-12-03T19:29:11.357Z,40.10
2018-12-03T19:34:13.964Z,12.27
2018-12-03T19:39:16.537Z,6.90
2018-12-03T19:44:19.148Z,7.53
2018-12-03T19:49:21.824Z,6.00
2018-12-03T19:54:24.377Z,6.53
2018-12-03T19:59:27.372Z,9.43
2018-12-03T20:04:35.602Z,6.50
2018-12-03T20:09:38.201Z,5.90
2018-12-03T20:14:40.809Z,6.37
2018-12-03T20:19:43.376Z,6.80
2018-12-03T20:24:45.946Z,6.70
2018-12-03T20:29:49.005Z,5.43
2018-12-03T20:34:51.655Z,6.47
2018-12-03T20:39:58.168Z,4.87
2018-12-03T20:45:02.014Z,4.40
2018-12-03T20:50:10.499Z,5.43
2018-12-03T20:55:16.126Z,4.67
2018-12-03T21:00:19.289Z,5.57
2018-12-03T21:05:22.085Z,8.17
2018-12-03T21:10:24.643Z,6.87
2018-12-03T21:15:27.312Z,7.33
2018-12-03T21:20:29.852Z,7.80
2018-12-03T21:25:32.448Z,7.23
2018-12-03T21:30:37.251Z,9.23
2018-12-03T21:35:40.089Z,7.57
2018-12-03T21:40:42.646Z,8.30
2018-12-03T21:45:45.335Z,9.87
2018-12-03T21:50:48.064Z,9.43
2018-12-03T21:55:50.922Z,8.27
2018-12-03T22:00:53.953Z,10.40
2018-12-03T22:05:56.506Z,8.50
2018-12-03T22:10:59.078Z,9.33
2018-12-03T22:16:01.637Z,7.93
2018-12-03T22:21:04.840Z,8.53
2018-12-03T22:26:07.836Z,10.20
2018-12-03T22:31:10.656Z,7.90
2018-12-03T22:36:13.196Z,9.70
2018-12-03T22:41:15.801Z,8.73
2018-12-03T22:46:18.366Z,8.13
2018-12-03T22:51:21.175Z,9.33
2018-12-03T22:56:24.257Z,11.13
2018-12-03T23:01:26.851Z,10.70
2018-12-03T23:06:29.388Z,10.77
2018-12-03T23:11:32.004Z,10.80
2018-12-03T23:16:34.703Z,10.73
2018-12-03T23:21:37.251Z,9.83
2018-12-03T23:26:39.850Z,10.33
2018-12-03T23:31:42.501Z,9.90
2018-12-03T23:36:46.007Z,13.93
2018-12-03T23:41:48.541Z,11.50
2018-12-03T23:46:51.089Z,11.23
2018-12-03T23:51:54.447Z,12.03
2018-12-03T23:56:56.984Z,10.23
